sensor_id;sensor_type;location;lat;lon;timestamp;P1;durP1;ratioP1;P2;durP2;ratioP2
70477;SDS011;57956;53.362;-1.518;2022-09-12T00:02:17;1.90;;;0.40;;
70477;SDS011;57956;53.362;-1.518;2022-09-12T00:04:42;1.43;;;0.20;;
70477;SDS011;57956;53.362;-1.518;2022-09-12T00:07:07;1.50;;;0.30;;
70477;SDS011;57956;53.362;-1.518;2022-09-12T00:09:32;1.87;;;0.20;;
70477;SDS011;57956;53.362;-1.518;2022-09-12T00:11:58;1.53;;;0.30;;
70477;SDS011;57956;53.362;-1.518;2022-09-12T00:14:23;1.43;;;0.30;;
70477;SDS011;57956;53.362;-1.518;2022-09-12T00:16:48;0.97;;;0.20;;
70477;SDS011;57956;53.362;-1.518;2022-09-12T00:19:13;1.53;;;0.30;;
70477;SDS011;57956;53.362;-1.518;2022-09-12T00:21:39;1.60;;;0.27;;
70477;SDS011;57956;53.362;-1.518;2022-09-12T00:24:05;1.42;;;0.30;;
70477;SDS011;57956;53.362;-1.518;2022-09-12T00:26:30;1.73;;;0.30;;
70477;SDS011;57956;53.362;-1.518;2022-09-12T00:28:56;1.25;;;0.20;;
70477;SDS011;57956;53.362;-1.518;2022-09-12T00:31:22;2.07;;;0.30;;
70477;SDS011;57956;53.362;-1.518;2022-09-12T00:33:48;1.92;;;0.50;;
70477;SDS011;57956;53.362;-1.518;2022-09-12T00:36:14;2.07;;;0.37;;
70477;SDS011;57956;53.362;-1.518;2022-09-12T00:38:40;2.22;;;0.50;;
70477;SDS011;57956;53.362;-1.518;2022-09-12T00:41:07;4.30;;;0.40;;
70477;SDS011;57956;53.362;-1.518;2022-09-12T00:43:39;1.97;;;0.20;;
70477;SDS011;57956;53.362;-1.518;2022-09-12T00:46:27;2.33;;;0.40;;
70477;SDS011;57956;53.362;-1.518;2022-09-12T00:48:55;1.83;;;0.43;;
70477;SDS011;57956;53.362;-1.518;2022-09-12T00:51:22;1.63;;;0.20;;
70477;SDS011;57956;53.362;-1.518;2022-09-12T00:53:48;2.20;;;0.50;;
70477;SDS011;57956;53.362;-1.518;2022-09-12T00:56:14;1.98;;;0.40;;
70477;SDS011;57956;53.362;-1.518;2022-09-12T00:58:43;1.50;;;0.30;;
70477;SDS011;57956;53.362;-1.518;2022-09-12T01:01:09;1.90;;;0.30;;
70477;SDS011;57956;53.362;-1.518;2022-09-12T01:03:35;2.43;;;0.50;;
70477;SDS011;57956;53.362;-1.518;2022-09-12T01:08:32;2.60;;;0.65;;
70477;SDS011;57956;53.362;-1.518;2022-09-12T01:10:58;3.05;;;0.30;;
70477;SDS011;57956;53.362;-1.518;2022-09-12T01:13:23;2.00;;;0.37;;
70477;SDS011;57956;53.362;-1.518;2022-09-12T01:15:48;2.80;;;0.70;;
70477;SDS011;57956;53.362;-1.518;2022-09-12T01:18:20;1.90;;;0.40;;
70477;SDS011;57956;53.362;-1.518;2022-09-12T01:36:19;2.35;;;0.50;;
70477;SDS011;57956;53.362;-1.518;2022-09-12T01:38:55;2.22;;;0.50;;
70477;SDS011;57956;53.362;-1.518;2022-09-12T01:46:43;2.20;;;0.50;;
70477;SDS011;57956;53.362;-1.518;2022-09-12T01:49:14;2.90;;;0.70;;
70477;SDS011;57956;53.362;-1.518;2022-09-12T01:51:51;1.93;;;0.20;;
70477;SDS011;57956;53.362;-1.518;2022-09-12T01:54:52;1.80;;;0.40;;
70477;SDS011;57956;53.362;-1.518;2022-09-12T01:57:10;3.47;;;0.88;;
70477;SDS011;57956;53.362;-1.518;2022-09-12T01:59:42;2.13;;;0.50;;
70477;SDS011;57956;53.362;-1.518;2022-09-12T02:02:10;2.70;;;0.88;;
70477;SDS011;57956;53.362;-1.518;2022-09-12T02:04:41;3.43;;;0.50;;
70477;SDS011;57956;53.362;-1.518;2022-09-12T02:07:19;3.27;;;0.73;;
70477;SDS011;57956;53.362;-1.518;2022-09-12T02:09:53;2.53;;;0.85;;
70477;SDS011;57956;53.362;-1.518;2022-09-12T02:12:23;2.95;;;0.73;;
70477;SDS011;57956;53.362;-1.518;2022-09-12T02:14:50;2.35;;;0.75;;
70477;SDS011;57956;53.362;-1.518;2022-09-12T02:17:21;2.10;;;0.65;;
70477;SDS011;57956;53.362;-1.518;2022-09-12T02:22:19;3.58;;;0.88;;
70477;SDS011;57956;53.362;-1.518;2022-09-12T02:24:46;1.85;;;0.50;;
70477;SDS011;57956;53.362;-1.518;2022-09-12T02:27:22;3.35;;;1.05;;
70477;SDS011;57956;53.362;-1.518;2022-09-12T02:29:48;2.28;;;0.60;;
70477;SDS011;57956;53.362;-1.518;2022-09-12T02:32:25;2.50;;;0.60;;
70477;SDS011;57956;53.362;-1.518;2022-09-12T02:34:55;3.08;;;0.68;;
70477;SDS011;57956;53.362;-1.518;2022-09-12T02:40:07;2.30;;;0.70;;
70477;SDS011;57956;53.362;-1.518;2022-09-12T02:42:34;2.72;;;0.50;;
70477;SDS011;57956;53.362;-1.518;2022-09-12T02:44:59;2.78;;;0.90;;
70477;SDS011;57956;53.362;-1.518;2022-09-12T02:49:51;3.13;;;0.73;;
70477;SDS011;57956;53.362;-1.518;2022-09-12T02:52:16;2.63;;;0.73;;
70477;SDS011;57956;53.362;-1.518;2022-09-12T02:54:42;3.60;;;0.93;;
70477;SDS011;57956;53.362;-1.518;2022-09-12T02:57:14;4.23;;;1.30;;
70477;SDS011;57956;53.362;-1.518;2022-09-12T02:59:40;3.28;;;0.93;;
70477;SDS011;57956;53.362;-1.518;2022-09-12T03:04:41;2.93;;;1.33;;
70477;SDS011;57956;53.362;-1.518;2022-09-12T03:12:36;4.80;;;1.30;;
70477;SDS011;57956;53.362;-1.518;2022-09-12T03:15:16;2.80;;;0.93;;
70477;SDS011;57956;53.362;-1.518;2022-09-12T03:20:31;3.25;;;1.15;;
70477;SDS011;57956;53.362;-1.518;2022-09-12T03:23:03;2.72;;;0.52;;
70477;SDS011;57956;53.362;-1.518;2022-09-12T03:25:52;4.38;;;0.80;;
70477;SDS011;57956;53.362;-1.518;2022-09-12T03:28:15;3.70;;;1.10;;
70477;SDS011;57956;53.362;-1.518;2022-09-12T03:30:42;3.20;;;1.07;;
70477;SDS011;57956;53.362;-1.518;2022-09-12T03:33:15;4.63;;;1.40;;
70477;SDS011;57956;53.362;-1.518;2022-09-12T03:35:41;4.22;;;0.73;;
70477;SDS011;57956;53.362;-1.518;2022-09-12T03:38:07;3.38;;;0.63;;
70477;SDS011;57956;53.362;-1.518;2022-09-12T03:40:33;3.10;;;1.00;;
70477;SDS011;57956;53.362;-1.518;2022-09-12T03:42:58;4.45;;;1.10;;
70477;SDS011;57956;53.362;-1.518;2022-09-12T03:45:24;3.47;;;1.40;;
70477;SDS011;57956;53.362;-1.518;2022-09-12T03:47:49;3.60;;;1.30;;
70477;SDS011;57956;53.362;-1.518;2022-09-12T03:50:14;3.33;;;0.80;;
70477;SDS011;57956;53.362;-1.518;2022-09-12T03:52:40;3.33;;;0.93;;
70477;SDS011;57956;53.362;-1.518;2022-09-12T03:55:05;3.47;;;1.03;;
70477;SDS011;57956;53.362;-1.518;2022-09-12T03:57:30;3.10;;;0.82;;
70477;SDS011;57956;53.362;-1.518;2022-09-12T03:59:55;3.67;;;1.23;;
70477;SDS011;57956;53.362;-1.518;2022-09-12T04:02:21;4.03;;;1.53;;
70477;SDS011;57956;53.362;-1.518;2022-09-12T04:04:46;4.50;;;1.43;;
70477;SDS011;57956;53.362;-1.518;2022-09-12T04:07:13;2.60;;;0.68;;
70477;SDS011;57956;53.362;-1.518;2022-09-12T04:09:39;5.13;;;1.43;;
70477;SDS011;57956;53.362;-1.518;2022-09-12T04:12:04;4.40;;;1.55;;
70477;SDS011;57956;53.362;-1.518;2022-09-12T04:14:30;2.83;;;0.87;;
70477;SDS011;57956;53.362;-1.518;2022-09-12T04:16:55;3.57;;;0.90;;
70477;SDS011;57956;53.362;-1.518;2022-09-12T04:19:20;3.97;;;1.40;;
70477;SDS011;57956;53.362;-1.518;2022-09-12T04:21:46;2.47;;;0.80;;
70477;SDS011;57956;53.362;-1.518;2022-09-12T04:24:11;3.53;;;0.85;;
70477;SDS011;57956;53.362;-1.518;2022-09-12T04:26:36;5.07;;;1.60;;
70477;SDS011;57956;53.362;-1.518;2022-09-12T04:29:02;4.07;;;1.03;;
70477;SDS011;57956;53.362;-1.518;2022-09-12T04:31:27;4.80;;;1.20;;
70477;SDS011;57956;53.362;-1.518;2022-09-12T04:33:53;4.97;;;1.20;;
70477;SDS011;57956;53.362;-1.518;2022-09-12T04:36:19;3.83;;;1.40;;
70477;SDS011;57956;53.362;-1.518;2022-09-12T04:38:45;4.10;;;1.10;;
70477;SDS011;57956;53.362;-1.518;2022-09-12T04:43:36;3.13;;;1.00;;
70477;SDS011;57956;53.362;-1.518;2022-09-12T04:46:10;4.57;;;1.13;;
70477;SDS011;57956;53.362;-1.518;2022-09-12T04:48:36;4.35;;;1.73;;
70477;SDS011;57956;53.362;-1.518;2022-09-12T04:51:12;3.50;;;1.07;;
70477;SDS011;57956;53.362;-1.518;2022-09-12T04:53:37;3.53;;;1.23;;
70477;SDS011;57956;53.362;-1.518;2022-09-12T04:56:03;4.03;;;1.20;;
70477;SDS011;57956;53.362;-1.518;2022-09-12T04:58:30;3.38;;;0.88;;
70477;SDS011;57956;53.362;-1.518;2022-09-12T05:00:55;4.85;;;1.23;;
70477;SDS011;57956;53.362;-1.518;2022-09-12T05:03:20;4.23;;;1.37;;
70477;SDS011;57956;53.362;-1.518;2022-09-12T05:05:46;3.23;;;1.03;;
70477;SDS011;57956;53.362;-1.518;2022-09-12T05:08:11;3.73;;;1.17;;
70477;SDS011;57956;53.362;-1.518;2022-09-12T05:10:36;3.63;;;1.13;;
70477;SDS011;57956;53.362;-1.518;2022-09-12T05:13:02;4.93;;;1.50;;
70477;SDS011;57956;53.362;-1.518;2022-09-12T05:15:27;3.80;;;0.97;;
70477;SDS011;57956;53.362;-1.518;2022-09-12T05:17:52;7.30;;;1.67;;
70477;SDS011;57956;53.362;-1.518;2022-09-12T05:20:18;4.63;;;1.47;;
70477;SDS011;57956;53.362;-1.518;2022-09-12T05:22:43;3.22;;;1.38;;
70477;SDS011;57956;53.362;-1.518;2022-09-12T05:25:09;4.03;;;1.40;;
70477;SDS011;57956;53.362;-1.518;2022-09-12T05:27:34;4.57;;;1.27;;
70477;SDS011;57956;53.362;-1.518;2022-09-12T05:30:00;3.20;;;1.10;;
70477;SDS011;57956;53.362;-1.518;2022-09-12T05:32:25;3.93;;;1.53;;
70477;SDS011;57956;53.362;-1.518;2022-09-12T05:34:54;3.25;;;0.90;;
70477;SDS011;57956;53.362;-1.518;2022-09-12T05:37:19;3.17;;;0.83;;
70477;SDS011;57956;53.362;-1.518;2022-09-12T05:39:45;4.40;;;1.20;;
70477;SDS011;57956;53.362;-1.518;2022-09-12T05:42:10;4.37;;;1.00;;
70477;SDS011;57956;53.362;-1.518;2022-09-12T05:44:36;4.53;;;1.37;;
70477;SDS011;57956;53.362;-1.518;2022-09-12T05:47:01;3.53;;;1.20;;
70477;SDS011;57956;53.362;-1.518;2022-09-12T05:49:26;3.70;;;1.27;;
70477;SDS011;57956;53.362;-1.518;2022-09-12T05:51:52;3.63;;;0.87;;
70477;SDS011;57956;53.362;-1.518;2022-09-12T05:54:17;4.10;;;1.20;;
70477;SDS011;57956;53.362;-1.518;2022-09-12T05:56:44;5.80;;;1.75;;
70477;SDS011;57956;53.362;-1.518;2022-09-12T05:59:14;4.00;;;0.82;;
70477;SDS011;57956;53.362;-1.518;2022-09-12T06:01:40;3.35;;;1.13;;
70477;SDS011;57956;53.362;-1.518;2022-09-12T06:04:06;3.77;;;1.07;;
70477;SDS011;57956;53.362;-1.518;2022-09-12T06:06:31;2.93;;;0.70;;
70477;SDS011;57956;53.362;-1.518;2022-09-12T06:09:00;5.03;;;1.80;;
70477;SDS011;57956;53.362;-1.518;2022-09-12T06:11:27;3.50;;;0.93;;
70477;SDS011;57956;53.362;-1.518;2022-09-12T06:13:52;3.38;;;1.33;;
70477;SDS011;57956;53.362;-1.518;2022-09-12T06:16:23;4.73;;;1.20;;
70477;SDS011;57956;53.362;-1.518;2022-09-12T06:18:57;3.80;;;0.98;;
70477;SDS011;57956;53.362;-1.518;2022-09-12T06:21:23;4.45;;;1.67;;
70477;SDS011;57956;53.362;-1.518;2022-09-12T06:23:49;3.33;;;1.30;;
70477;SDS011;57956;53.362;-1.518;2022-09-12T06:26:15;4.30;;;1.53;;
70477;SDS011;57956;53.362;-1.518;2022-09-12T06:28:48;3.67;;;1.00;;
70477;SDS011;57956;53.362;-1.518;2022-09-12T06:31:16;4.43;;;1.67;;
70477;SDS011;57956;53.362;-1.518;2022-09-12T06:33:43;3.83;;;0.93;;
70477;SDS011;57956;53.362;-1.518;2022-09-12T06:36:12;3.35;;;1.20;;
70477;SDS011;57956;53.362;-1.518;2022-09-12T06:38:38;4.63;;;1.33;;
70477;SDS011;57956;53.362;-1.518;2022-09-12T06:41:04;4.70;;;1.55;;
70477;SDS011;57956;53.362;-1.518;2022-09-12T06:43:30;3.80;;;1.23;;
70477;SDS011;57956;53.362;-1.518;2022-09-12T06:45:56;3.87;;;1.40;;
70477;SDS011;57956;53.362;-1.518;2022-09-12T06:48:21;4.22;;;1.35;;
70477;SDS011;57956;53.362;-1.518;2022-09-12T06:50:56;4.03;;;1.00;;
70477;SDS011;57956;53.362;-1.518;2022-09-12T06:53:22;4.75;;;1.52;;
70477;SDS011;57956;53.362;-1.518;2022-09-12T06:55:53;6.30;;;1.40;;
70477;SDS011;57956;53.362;-1.518;2022-09-12T06:58:19;3.83;;;1.55;;
70477;SDS011;57956;53.362;-1.518;2022-09-12T07:00:44;6.20;;;1.63;;
70477;SDS011;57956;53.362;-1.518;2022-09-12T07:03:09;5.40;;;1.83;;
70477;SDS011;57956;53.362;-1.518;2022-09-12T07:05:35;3.37;;;0.87;;
70477;SDS011;57956;53.362;-1.518;2022-09-12T07:08:01;4.85;;;1.88;;
70477;SDS011;57956;53.362;-1.518;2022-09-12T07:10:27;8.57;;;1.57;;
70477;SDS011;57956;53.362;-1.518;2022-09-12T07:12:53;5.55;;;1.70;;
70477;SDS011;57956;53.362;-1.518;2022-09-12T07:15:18;4.93;;;1.50;;
70477;SDS011;57956;53.362;-1.518;2022-09-12T07:17:43;5.60;;;1.40;;
70477;SDS011;57956;53.362;-1.518;2022-09-12T07:20:09;4.60;;;1.70;;
70477;SDS011;57956;53.362;-1.518;2022-09-12T07:22:34;4.10;;;1.20;;
70477;SDS011;57956;53.362;-1.518;2022-09-12T07:24:59;9.33;;;2.27;;
70477;SDS011;57956;53.362;-1.518;2022-09-12T07:27:24;3.00;;;1.00;;
70477;SDS011;57956;53.362;-1.518;2022-09-12T07:29:50;6.30;;;1.83;;
70477;SDS011;57956;53.362;-1.518;2022-09-12T07:32:15;3.63;;;1.40;;
70477;SDS011;57956;53.362;-1.518;2022-09-12T07:34:40;3.73;;;1.53;;
70477;SDS011;57956;53.362;-1.518;2022-09-12T07:37:06;3.73;;;1.23;;
70477;SDS011;57956;53.362;-1.518;2022-09-12T07:39:31;3.47;;;1.30;;
70477;SDS011;57956;53.362;-1.518;2022-09-12T07:41:56;3.97;;;1.73;;
70477;SDS011;57956;53.362;-1.518;2022-09-12T07:44:22;4.82;;;1.40;;
70477;SDS011;57956;53.362;-1.518;2022-09-12T07:46:49;3.60;;;1.13;;
70477;SDS011;57956;53.362;-1.518;2022-09-12T07:49:14;5.60;;;2.13;;
70477;SDS011;57956;53.362;-1.518;2022-09-12T07:51:40;4.47;;;1.57;;
70477;SDS011;57956;53.362;-1.518;2022-09-12T07:54:08;5.17;;;1.47;;
70477;SDS011;57956;53.362;-1.518;2022-09-12T07:56:33;6.15;;;1.23;;
70477;SDS011;57956;53.362;-1.518;2022-09-12T07:58:59;5.83;;;1.17;;
70477;SDS011;57956;53.362;-1.518;2022-09-12T08:01:25;3.78;;;1.10;;
70477;SDS011;57956;53.362;-1.518;2022-09-12T08:03:57;3.10;;;1.00;;
70477;SDS011;57956;53.362;-1.518;2022-09-12T08:06:23;5.00;;;1.08;;
70477;SDS011;57956;53.362;-1.518;2022-09-12T08:08:49;4.38;;;1.38;;
70477;SDS011;57956;53.362;-1.518;2022-09-12T08:11:15;3.50;;;1.17;;
70477;SDS011;57956;53.362;-1.518;2022-09-12T08:13:41;3.10;;;0.90;;
70477;SDS011;57956;53.362;-1.518;2022-09-12T08:16:11;3.55;;;1.40;;
70477;SDS011;57956;53.362;-1.518;2022-09-12T08:18:36;3.13;;;1.02;;
70477;SDS011;57956;53.362;-1.518;2022-09-12T08:21:03;4.17;;;1.10;;
70477;SDS011;57956;53.362;-1.518;2022-09-12T08:23:29;4.97;;;1.20;;
70477;SDS011;57956;53.362;-1.518;2022-09-12T08:25:58;3.27;;;1.17;;
70477;SDS011;57956;53.362;-1.518;2022-09-12T08:28:24;2.88;;;0.88;;
70477;SDS011;57956;53.362;-1.518;2022-09-12T08:30:50;3.45;;;1.02;;
70477;SDS011;57956;53.362;-1.518;2022-09-12T08:33:15;2.40;;;0.93;;
70477;SDS011;57956;53.362;-1.518;2022-09-12T08:35:40;3.80;;;1.17;;
70477;SDS011;57956;53.362;-1.518;2022-09-12T08:38:06;3.60;;;1.17;;
70477;SDS011;57956;53.362;-1.518;2022-09-12T08:40:32;3.03;;;0.60;;
70477;SDS011;57956;53.362;-1.518;2022-09-12T08:43:11;4.82;;;1.00;;
70477;SDS011;57956;53.362;-1.518;2022-09-12T08:45:42;2.40;;;0.70;;
70477;SDS011;57956;53.362;-1.518;2022-09-12T08:48:12;2.80;;;0.70;;
70477;SDS011;57956;53.362;-1.518;2022-09-12T08:50:38;2.28;;;0.60;;
70477;SDS011;57956;53.362;-1.518;2022-09-12T08:53:12;1.80;;;0.40;;
70477;SDS011;57956;53.362;-1.518;2022-09-12T08:55:45;1.40;;;0.20;;
70477;SDS011;57956;53.362;-1.518;2022-09-12T08:58:16;2.05;;;0.50;;
70477;SDS011;57956;53.362;-1.518;2022-09-12T09:01:27;2.60;;;0.80;;
70477;SDS011;57956;53.362;-1.518;2022-09-12T09:11:33;2.20;;;0.47;;
70477;SDS011;57956;53.362;-1.518;2022-09-12T09:17:03;1.30;;;0.30;;
70477;SDS011;57956;53.362;-1.518;2022-09-12T09:19:37;1.98;;;0.30;;
70477;SDS011;57956;53.362;-1.518;2022-09-12T09:22:05;1.47;;;0.30;;
70477;SDS011;57956;53.362;-1.518;2022-09-12T09:24:33;1.63;;;0.40;;
70477;SDS011;57956;53.362;-1.518;2022-09-12T09:27:03;1.55;;;0.35;;
70477;SDS011;57956;53.362;-1.518;2022-09-12T09:29:43;1.75;;;0.32;;
70477;SDS011;57956;53.362;-1.518;2022-09-12T09:32:16;1.80;;;0.30;;
70477;SDS011;57956;53.362;-1.518;2022-09-12T09:34:42;1.63;;;0.43;;
70477;SDS011;57956;53.362;-1.518;2022-09-12T09:40:02;1.53;;;0.30;;
70477;SDS011;57956;53.362;-1.518;2022-09-12T09:44:58;1.67;;;0.30;;
70477;SDS011;57956;53.362;-1.518;2022-09-12T09:47:24;2.00;;;0.43;;
70477;SDS011;57956;53.362;-1.518;2022-09-12T09:49:50;1.57;;;0.30;;
70477;SDS011;57956;53.362;-1.518;2022-09-12T09:52:16;1.80;;;0.38;;
70477;SDS011;57956;53.362;-1.518;2022-09-12T09:59:54;1.87;;;0.60;;
70477;SDS011;57956;53.362;-1.518;2022-09-12T10:02:20;2.38;;;0.60;;
70477;SDS011;57956;53.362;-1.518;2022-09-12T10:04:54;2.63;;;0.77;;
70477;SDS011;57956;53.362;-1.518;2022-09-12T10:07:20;2.40;;;0.38;;
70477;SDS011;57956;53.362;-1.518;2022-09-12T10:12:29;2.20;;;0.50;;
70477;SDS011;57956;53.362;-1.518;2022-09-12T10:14:58;2.13;;;0.33;;
70477;SDS011;57956;53.362;-1.518;2022-09-12T10:19:51;2.35;;;0.50;;
70477;SDS011;57956;53.362;-1.518;2022-09-12T10:22:17;2.90;;;0.30;;
70477;SDS011;57956;53.362;-1.518;2022-09-12T10:24:48;2.03;;;0.35;;
70477;SDS011;57956;53.362;-1.518;2022-09-12T10:27:27;1.70;;;0.50;;
70477;SDS011;57956;53.362;-1.518;2022-09-12T10:32:29;1.77;;;0.37;;
70477;SDS011;57956;53.362;-1.518;2022-09-12T10:34:56;1.83;;;0.38;;
70477;SDS011;57956;53.362;-1.518;2022-09-12T10:37:36;2.25;;;0.50;;
70477;SDS011;57956;53.362;-1.518;2022-09-12T10:40:03;2.00;;;0.40;;
70477;SDS011;57956;53.362;-1.518;2022-09-12T10:45:16;1.60;;;0.30;;
70477;SDS011;57956;53.362;-1.518;2022-09-12T10:47:42;1.40;;;0.30;;
70477;SDS011;57956;53.362;-1.518;2022-09-12T10:50:21;2.30;;;0.40;;
70477;SDS011;57956;53.362;-1.518;2022-09-12T10:52:47;1.67;;;0.47;;
70477;SDS011;57956;53.362;-1.518;2022-09-12T10:55:13;1.93;;;0.40;;
70477;SDS011;57956;53.362;-1.518;2022-09-12T11:05:13;1.52;;;0.22;;
70477;SDS011;57956;53.362;-1.518;2022-09-12T11:10:20;1.90;;;0.43;;
70477;SDS011;57956;53.362;-1.518;2022-09-12T11:12:50;1.45;;;0.30;;
70477;SDS011;57956;53.362;-1.518;2022-09-12T11:18:13;1.50;;;0.37;;
70477;SDS011;57956;53.362;-1.518;2022-09-12T11:25:58;1.10;;;0.20;;
70477;SDS011;57956;53.362;-1.518;2022-09-12T11:33:55;1.58;;;0.20;;
70477;SDS011;57956;53.362;-1.518;2022-09-12T11:39:27;1.30;;;0.20;;
70477;SDS011;57956;53.362;-1.518;2022-09-12T11:41:54;1.30;;;0.10;;
70477;SDS011;57956;53.362;-1.518;2022-09-12T11:44:21;1.60;;;0.30;;
70477;SDS011;57956;53.362;-1.518;2022-09-12T11:46:48;1.23;;;0.20;;
70477;SDS011;57956;53.362;-1.518;2022-09-12T11:49:21;1.27;;;0.20;;
70477;SDS011;57956;53.362;-1.518;2022-09-12T11:51:56;1.77;;;0.30;;
70477;SDS011;57956;53.362;-1.518;2022-09-12T11:56:56;1.58;;;0.20;;
70477;SDS011;57956;53.362;-1.518;2022-09-12T11:59:31;1.35;;;0.20;;
70477;SDS011;57956;53.362;-1.518;2022-09-12T12:01:58;1.20;;;0.20;;
70477;SDS011;57956;53.362;-1.518;2022-09-12T12:04:26;1.17;;;0.22;;
70477;SDS011;57956;53.362;-1.518;2022-09-12T12:07:04;1.20;;;0.20;;
70477;SDS011;57956;53.362;-1.518;2022-09-12T12:09:30;1.30;;;0.20;;
70477;SDS011;57956;53.362;-1.518;2022-09-12T12:11:55;1.27;;;0.20;;
70477;SDS011;57956;53.362;-1.518;2022-09-12T12:14:40;1.30;;;0.30;;
70477;SDS011;57956;53.362;-1.518;2022-09-12T12:17:16;1.45;;;0.35;;
70477;SDS011;57956;53.362;-1.518;2022-09-12T12:19:43;1.37;;;0.30;;
70477;SDS011;57956;53.362;-1.518;2022-09-12T12:22:19;1.42;;;0.30;;
70477;SDS011;57956;53.362;-1.518;2022-09-12T12:38:02;1.15;;;0.20;;
70477;SDS011;57956;53.362;-1.518;2022-09-12T12:40:29;0.95;;;0.15;;
70477;SDS011;57956;53.362;-1.518;2022-09-12T12:43:01;1.40;;;0.28;;
70477;SDS011;57956;53.362;-1.518;2022-09-12T12:47:53;1.30;;;0.20;;
70477;SDS011;57956;53.362;-1.518;2022-09-12T12:50:20;1.35;;;0.22;;
70477;SDS011;57956;53.362;-1.518;2022-09-12T12:53:03;1.20;;;0.28;;
70477;SDS011;57956;53.362;-1.518;2022-09-12T12:57:59;1.35;;;0.20;;
70477;SDS011;57956;53.362;-1.518;2022-09-12T13:00:26;1.60;;;0.30;;
70477;SDS011;57956;53.362;-1.518;2022-09-12T13:05:25;1.30;;;0.20;;
70477;SDS011;57956;53.362;-1.518;2022-09-12T13:07:55;1.33;;;0.20;;
70477;SDS011;57956;53.362;-1.518;2022-09-12T13:10:23;1.17;;;0.17;;
70477;SDS011;57956;53.362;-1.518;2022-09-12T13:12:48;1.33;;;0.23;;
70477;SDS011;57956;53.362;-1.518;2022-09-12T13:17:58;1.25;;;0.20;;
70477;SDS011;57956;53.362;-1.518;2022-09-12T13:20:27;1.40;;;0.20;;
70477;SDS011;57956;53.362;-1.518;2022-09-12T13:22:53;1.85;;;0.50;;
70477;SDS011;57956;53.362;-1.518;2022-09-12T13:25:25;1.43;;;0.20;;
70477;SDS011;57956;53.362;-1.518;2022-09-12T13:30:22;1.20;;;0.20;;
70477;SDS011;57956;53.362;-1.518;2022-09-12T13:32:48;1.23;;;0.20;;
70477;SDS011;57956;53.362;-1.518;2022-09-12T13:35:38;2.25;;;0.20;;
70477;SDS011;57956;53.362;-1.518;2022-09-12T13:38:08;1.20;;;0.20;;
70477;SDS011;57956;53.362;-1.518;2022-09-12T13:40:38;0.93;;;0.20;;
70477;SDS011;57956;53.362;-1.518;2022-09-12T13:43:11;1.15;;;0.20;;
70477;SDS011;57956;53.362;-1.518;2022-09-12T13:45:38;1.20;;;0.20;;
70477;SDS011;57956;53.362;-1.518;2022-09-12T13:48:04;1.50;;;0.20;;
70477;SDS011;57956;53.362;-1.518;2022-09-12T13:50:38;5.05;;;0.30;;
70477;SDS011;57956;53.362;-1.518;2022-09-12T13:53:18;1.02;;;0.10;;
70477;SDS011;57956;53.362;-1.518;2022-09-12T13:55:46;1.20;;;0.20;;
70477;SDS011;57956;53.362;-1.518;2022-09-12T13:58:19;1.27;;;0.25;;
70477;SDS011;57956;53.362;-1.518;2022-09-12T14:00:45;1.37;;;0.30;;
70477;SDS011;57956;53.362;-1.518;2022-09-12T14:03:19;1.30;;;0.20;;
70477;SDS011;57956;53.362;-1.518;2022-09-12T14:06:06;1.50;;;0.40;;
70477;SDS011;57956;53.362;-1.518;2022-09-12T14:08:32;1.00;;;0.20;;
70477;SDS011;57956;53.362;-1.518;2022-09-12T14:10:57;1.53;;;0.23;;
70477;SDS011;57956;53.362;-1.518;2022-09-12T14:13:23;1.00;;;0.10;;
70477;SDS011;57956;53.362;-1.518;2022-09-12T14:15:50;2.05;;;0.40;;
70477;SDS011;57956;53.362;-1.518;2022-09-12T14:18:26;1.10;;;0.25;;
70477;SDS011;57956;53.362;-1.518;2022-09-12T14:20:51;1.00;;;0.10;;
70477;SDS011;57956;53.362;-1.518;2022-09-12T14:23:23;1.10;;;0.20;;
70477;SDS011;57956;53.362;-1.518;2022-09-12T14:25:51;1.17;;;0.20;;
70477;SDS011;57956;53.362;-1.518;2022-09-12T14:28:16;1.10;;;0.20;;
70477;SDS011;57956;53.362;-1.518;2022-09-12T14:31:04;2.00;;;0.30;;
70477;SDS011;57956;53.362;-1.518;2022-09-12T14:33:52;1.60;;;0.30;;
70477;SDS011;57956;53.362;-1.518;2022-09-12T14:39:44;1.23;;;0.20;;
70477;SDS011;57956;53.362;-1.518;2022-09-12T14:42:06;3.17;;;0.20;;
70477;SDS011;57956;53.362;-1.518;2022-09-12T14:44:35;1.30;;;0.25;;
70477;SDS011;57956;53.362;-1.518;2022-09-12T14:47:11;0.97;;;0.13;;
70477;SDS011;57956;53.362;-1.518;2022-09-12T14:49:37;1.38;;;0.20;;
70477;SDS011;57956;53.362;-1.518;2022-09-12T14:52:03;1.50;;;0.20;;
70477;SDS011;57956;53.362;-1.518;2022-09-12T14:59:28;1.30;;;0.20;;
70477;SDS011;57956;53.362;-1.518;2022-09-12T15:04:38;1.30;;;0.30;;
70477;SDS011;57956;53.362;-1.518;2022-09-12T15:08:12;1.10;;;0.20;;
70477;SDS011;57956;53.362;-1.518;2022-09-12T15:10:00;0.80;;;0.10;;
70477;SDS011;57956;53.362;-1.518;2022-09-12T15:12:25;1.67;;;0.30;;
70477;SDS011;57956;53.362;-1.518;2022-09-12T15:14:51;1.33;;;0.20;;
70477;SDS011;57956;53.362;-1.518;2022-09-12T15:17:16;1.30;;;0.20;;
70477;SDS011;57956;53.362;-1.518;2022-09-12T15:19:42;1.30;;;0.20;;
70477;SDS011;57956;53.362;-1.518;2022-09-12T15:22:11;1.17;;;0.20;;
70477;SDS011;57956;53.362;-1.518;2022-09-12T15:24:36;1.23;;;0.20;;
70477;SDS011;57956;53.362;-1.518;2022-09-12T15:27:10;1.67;;;0.32;;
70477;SDS011;57956;53.362;-1.518;2022-09-12T15:29:36;1.50;;;0.33;;
70477;SDS011;57956;53.362;-1.518;2022-09-12T15:32:01;1.70;;;0.30;;
70477;SDS011;57956;53.362;-1.518;2022-09-12T15:34:26;1.50;;;0.20;;
70477;SDS011;57956;53.362;-1.518;2022-09-12T15:36:52;1.40;;;0.40;;
70477;SDS011;57956;53.362;-1.518;2022-09-12T15:39:17;1.33;;;0.20;;
70477;SDS011;57956;53.362;-1.518;2022-09-12T15:41:42;0.90;;;0.10;;
70477;SDS011;57956;53.362;-1.518;2022-09-12T15:44:11;0.90;;;0.10;;
70477;SDS011;57956;53.362;-1.518;2022-09-12T15:46:36;1.27;;;0.20;;
70477;SDS011;57956;53.362;-1.518;2022-09-12T15:49:01;1.20;;;0.20;;
70477;SDS011;57956;53.362;-1.518;2022-09-12T15:51:27;1.03;;;0.13;;
70477;SDS011;57956;53.362;-1.518;2022-09-12T15:53:52;1.20;;;0.20;;
70477;SDS011;57956;53.362;-1.518;2022-09-12T15:56:18;1.03;;;0.20;;
70477;SDS011;57956;53.362;-1.518;2022-09-12T15:58:44;1.13;;;0.20;;
70477;SDS011;57956;53.362;-1.518;2022-09-12T16:01:10;1.13;;;0.20;;
70477;SDS011;57956;53.362;-1.518;2022-09-12T16:03:36;1.05;;;0.10;;
70477;SDS011;57956;53.362;-1.518;2022-09-12T16:06:02;1.03;;;0.20;;
70477;SDS011;57956;53.362;-1.518;2022-09-12T16:08:28;0.90;;;0.10;;
70477;SDS011;57956;53.362;-1.518;2022-09-12T16:10:55;1.30;;;0.30;;
70477;SDS011;57956;53.362;-1.518;2022-09-12T16:13:22;1.10;;;0.20;;
70477;SDS011;57956;53.362;-1.518;2022-09-12T16:15:47;1.27;;;0.30;;
70477;SDS011;57956;53.362;-1.518;2022-09-12T16:18:12;1.37;;;0.20;;
70477;SDS011;57956;53.362;-1.518;2022-09-12T16:20:38;1.67;;;0.50;;
70477;SDS011;57956;53.362;-1.518;2022-09-12T16:23:04;2.58;;;0.40;;
70477;SDS011;57956;53.362;-1.518;2022-09-12T16:25:29;1.73;;;0.27;;
70477;SDS011;57956;53.362;-1.518;2022-09-12T16:27:55;1.65;;;0.35;;
70477;SDS011;57956;53.362;-1.518;2022-09-12T16:30:20;1.73;;;0.30;;
70477;SDS011;57956;53.362;-1.518;2022-09-12T16:32:45;1.47;;;0.30;;
70477;SDS011;57956;53.362;-1.518;2022-09-12T16:35:11;1.50;;;0.30;;
70477;SDS011;57956;53.362;-1.518;2022-09-12T16:37:36;1.67;;;0.57;;
70477;SDS011;57956;53.362;-1.518;2022-09-12T16:40:02;1.40;;;0.30;;
70477;SDS011;57956;53.362;-1.518;2022-09-12T16:42:28;1.25;;;0.20;;
70477;SDS011;57956;53.362;-1.518;2022-09-12T16:44:54;2.20;;;0.30;;
70477;SDS011;57956;53.362;-1.518;2022-09-12T16:47:19;1.57;;;0.30;;
70477;SDS011;57956;53.362;-1.518;2022-09-12T16:49:44;1.90;;;0.30;;
70477;SDS011;57956;53.362;-1.518;2022-09-12T16:52:10;1.77;;;0.37;;
70477;SDS011;57956;53.362;-1.518;2022-09-12T16:54:38;2.00;;;0.43;;
70477;SDS011;57956;53.362;-1.518;2022-09-12T16:57:03;1.50;;;0.30;;
70477;SDS011;57956;53.362;-1.518;2022-09-12T16:59:30;1.83;;;0.40;;
70477;SDS011;57956;53.362;-1.518;2022-09-12T17:01:56;1.85;;;0.30;;